Main page
METAR-TAF:

METAR-TAF

Airports :

Cardiff Airport

Cardiff, Wales

latitude: 51-24N, longitude: 003-21W, elevation: 67 m

Current weather observation

The report was made 30 minutes ago, at 22:50 UTC
Wind 6 kt from the East/Northeast
Temperature 14°C
Humidity 72%
Pressure 1000 hPa
Visibility 10 km or more

METAR: EGFF 222250Z AUTO 06006KT 9999 NCD 14/09 Q1000

Time: 00:20 (23:20 UTC)

Forecast

The report was made 6 hours and 27 minutes ago, at 16:53 UTC
Forecast valid from 22 at 18 UTC to 23 at 18 UTC
Wind 10 kt from the East/Southeast
Visibility 10 km or more
no clouds below 1500 m and no cumulonimbus
Probability 30% :
Temporary
from 22 at 18 UTC to 23 at 06 UTC
Visibility: 8000 m
rain showers
Becoming
from 22 at 21 UTC to 22 at 24 UTC
Wind 4 kt from variable directions
Becoming
from 23 at 02 UTC to 23 at 05 UTC
Wind 10 kt from the East

TAF: EGFF 221653Z 2218/2318 12010KT CAVOK PROB30 TEMPO 2218/2306 8000 SHRA BECMG 2221/2224 VRB04KT BECMG 2302/2305 08010KT

Weather observations and forecasts of more than 4000 airports (METAR and TAF reports).

The available stations are represented by yellow and red dots on the map.

Hover mouse over dot to see the name of the station.

Then click to see weather observations and forecasts.

To change the map : click on the green buttons with a black cross to zoom in, on the green button with a dash to zoom out, or on the green arrows for adjacent maps.


METAR-TAF: